Time;durP1;ratioP1;P1;durP2;ratioP2;P2;SDS_P1;SDS_P2;PMS_P1;PMS_P2;Temp;Humidity;BMP_temperature;BMP_pressure;BME280_temperature;BME280_humidity;BME280_pressure;Samples;Min_cycle;Max_cycle;Signal;HPM_P1;HPM_P2
2023/03/22 00:01:07;;;;;;;5.32;0.90;;;;;;;;;;5282998;28;20479;-69
2023/03/22 00:03:38;;;;;;;4.85;0.90;;;;;;;;;;5283624;28;20425;-70
2023/03/22 00:06:09;;;;;;;4.00;0.68;;;;;;;;;;5283848;28;20112;-70
2023/03/22 00:08:41;;;;;;;4.43;0.80;;;;;;;;;;5282381;28;20520;-70
2023/03/22 00:11:12;;;;;;;5.28;0.70;;;;;;;;;;5283830;28;20518;-70
2023/03/22 00:13:45;;;;;;;5.15;1.00;;;;;;;;;;5283089;28;20040;-69
2023/03/22 00:16:17;;;;;;;4.68;0.70;;;;;;;;;;5282841;28;20028;-70
2023/03/22 00:18:48;;;;;;;5.25;0.90;;;;;;;;;;5283148;28;20482;-70
2023/03/22 00:21:20;;;;;;;5.13;0.80;;;;;;;;;;5282278;28;20028;-69
2023/03/22 00:23:51;;;;;;;6.15;0.75;;;;;;;;;;5283240;28;20027;-69
2023/03/22 00:26:22;;;;;;;5.50;1.27;;;;;;;;;;5283010;28;20055;-70
2023/03/22 00:28:53;;;;;;;4.85;0.70;;;;;;;;;;5282447;28;20021;-71
2023/03/22 00:31:24;;;;;;;4.68;1.10;;;;;;;;;;5282734;28;20255;-70
2023/03/22 00:33:56;;;;;;;4.25;1.27;;;;;;;;;;5283354;28;20008;-70
2023/03/22 00:36:27;;;;;;;5.15;0.75;;;;;;;;;;5281255;28;20070;-69
2023/03/22 00:38:58;;;;;;;4.50;0.93;;;;;;;;;;5282721;28;20028;-69
2023/03/22 00:41:29;;;;;;;5.70;1.10;;;;;;;;;;5282564;28;20037;-69
2023/03/22 00:44:01;;;;;;;4.63;0.70;;;;;;;;;;5282348;28;20017;-69
2023/03/22 00:46:32;;;;;;;6.10;1.15;;;;;;;;;;5282461;28;20025;-69
2023/03/22 00:49:03;;;;;;;4.13;1.30;;;;;;;;;;5282497;28;20024;-69
2023/03/22 00:51:34;;;;;;;5.68;1.15;;;;;;;;;;5282099;28;20088;-69
2023/03/22 00:54:05;;;;;;;4.43;1.30;;;;;;;;;;5283052;28;20027;-69
2023/03/22 00:56:37;;;;;;;3.75;1.08;;;;;;;;;;5281592;28;20020;-69
2023/03/22 00:59:08;;;;;;;6.28;1.40;;;;;;;;;;5282833;28;20047;-69
2023/03/22 01:01:39;;;;;;;5.72;1.35;;;;;;;;;;5281960;28;20068;-69
2023/03/22 01:04:16;;;;;;;4.93;1.40;;;;;;;;;;5282186;28;20270;-69
2023/03/22 01:06:47;;;;;;;4.55;1.75;;;;;;;;;;5282376;28;20025;-69
2023/03/22 01:09:22;;;;;;;4.78;1.77;;;;;;;;;;5282760;28;20111;-69
2023/03/22 01:11:55;;;;;;;8.75;2.10;;;;;;;;;;5281484;28;20016;-69
2023/03/22 01:14:26;;;;;;;5.78;2.45;;;;;;;;;;5281883;28;20028;-69
2023/03/22 01:16:57;;;;;;;5.35;2.60;;;;;;;;;;5282731;28;20017;-69
2023/03/22 01:19:29;;;;;;;10.16;2.98;;;;;;;;;;5281285;28;20074;-69
2023/03/22 01:22:01;;;;;;;6.15;3.28;;;;;;;;;;5282229;28;20056;-69
2023/03/22 01:24:32;;;;;;;7.45;3.42;;;;;;;;;;5280947;28;20589;-70
2023/03/22 01:27:04;;;;;;;9.63;4.65;;;;;;;;;;5282285;28;20485;-69
2023/03/22 01:29:36;;;;;;;7.00;3.97;;;;;;;;;;5281720;28;20371;-70
2023/03/22 01:32:07;;;;;;;6.32;4.40;;;;;;;;;;5281905;28;20444;-70
2023/03/22 01:34:38;;;;;;;6.95;4.18;;;;;;;;;;5281560;28;20043;-69
2023/03/22 01:37:09;;;;;;;5.72;4.00;;;;;;;;;;5282220;28;20459;-70
2023/03/22 01:39:40;;;;;;;7.57;4.03;;;;;;;;;;5280977;28;20364;-70
2023/03/22 01:42:15;;;;;;;8.50;4.40;;;;;;;;;;5282215;28;20111;-70
2023/03/22 01:45:05;;;;;;;7.43;4.75;;;;;;;;;;5281772;28;20363;-70
2023/03/22 01:47:36;;;;;;;6.72;3.63;;;;;;;;;;5280620;28;20021;-70
2023/03/22 01:50:07;;;;;;;5.05;4.13;;;;;;;;;;5282014;28;20036;-70
2023/03/22 01:52:39;;;;;;;6.13;4.00;;;;;;;;;;5280488;28;20118;-70
2023/03/22 01:55:11;;;;;;;8.77;4.57;;;;;;;;;;5282152;28;20511;-70
2023/03/22 01:57:43;;;;;;;8.77;4.25;;;;;;;;;;5281444;28;20103;-70
2023/03/22 02:00:17;;;;;;;8.55;5.25;;;;;;;;;;5281142;28;20111;-70
2023/03/22 02:02:50;;;;;;;7.63;4.32;;;;;;;;;;5281236;28;20020;-70
2023/03/22 02:05:21;;;;;;;7.57;5.13;;;;;;;;;;5281722;28;20384;-70
2023/03/22 02:07:52;;;;;;;6.25;4.88;;;;;;;;;;5281071;28;20205;-69
2023/03/22 02:10:25;;;;;;;8.55;4.80;;;;;;;;;;5281247;28;20028;-70
2023/03/22 02:13:15;;;;;;;8.95;4.57;;;;;;;;;;5281903;28;20020;-69
2023/03/22 02:15:59;;;;;;;6.80;4.72;;;;;;;;;;5280555;28;20025;-69
2023/03/22 02:18:37;;;;;;;9.15;6.43;;;;;;;;;;5281342;28;20048;-70
2023/03/22 02:21:09;;;;;;;7.68;5.90;;;;;;;;;;5280959;28;20028;-70
2023/03/22 02:23:59;;;;;;;6.88;5.65;;;;;;;;;;5281137;28;20020;-72
2023/03/22 02:26:50;;;;;;;7.47;5.57;;;;;;;;;;5280936;28;20024;-70
2023/03/22 02:29:33;;;;;;;6.57;5.57;;;;;;;;;;5280705;28;20113;-70
2023/03/22 02:32:18;;;;;;;8.52;6.10;;;;;;;;;;5281566;28;20103;-71
2023/03/22 02:35:01;;;;;;;6.68;5.30;;;;;;;;;;5280234;28;20486;-70
2023/03/22 02:37:38;;;;;;;7.97;5.65;;;;;;;;;;5281017;28;20025;-70
2023/03/22 02:40:28;;;;;;;7.75;5.07;;;;;;;;;;5281793;28;20029;-70
2023/03/22 02:43:02;;;;;;;7.72;5.50;;;;;;;;;;5281082;28;20028;-70
2023/03/22 02:45:39;;;;;;;6.25;5.03;;;;;;;;;;5280951;28;20028;-70
2023/03/22 02:48:12;;;;;;;7.75;4.40;;;;;;;;;;5281655;28;20020;-72
2023/03/22 02:50:43;;;;;;;6.35;4.35;;;;;;;;;;5280301;28;20029;-70
2023/03/22 02:53:28;;;;;;;7.93;4.70;;;;;;;;;;5281413;28;20079;-70
2023/03/22 02:56:01;;;;;;;7.88;4.50;;;;;;;;;;5280729;28;20693;-70
2023/03/22 02:58:38;;;;;;;6.68;4.20;;;;;;;;;;5280662;28;20081;-70
2023/03/22 03:01:10;;;;;;;4.65;3.97;;;;;;;;;;5283693;28;20050;-71
2023/03/22 03:03:46;;;;;;;4.75;3.05;;;;;;;;;;5284006;28;20344;-70
2023/03/22 03:06:20;;;;;;;5.25;3.10;;;;;;;;;;5285187;28;20024;-70
2023/03/22 03:08:52;;;;;;;6.05;3.80;;;;;;;;;;5284827;28;20099;-68
2023/03/22 03:11:23;;;;;;;5.18;3.00;;;;;;;;;;5284252;28;20179;-70
2023/03/22 03:13:55;;;;;;;8.52;3.50;;;;;;;;;;5284520;28;20052;-69
2023/03/22 03:16:28;;;;;;;7.43;4.03;;;;;;;;;;5284403;28;20477;-70
2023/03/22 03:19:06;;;;;;;4.22;2.67;;;;;;;;;;5284050;28;20078;-70
2023/03/22 03:21:51;;;;;;;5.50;3.22;;;;;;;;;;5284712;28;20119;-70
2023/03/22 03:24:28;;;;;;;5.68;2.65;;;;;;;;;;5283830;28;20082;-70
2023/03/22 03:27:01;;;;;;;3.85;2.60;;;;;;;;;;5284741;28;20103;-70
2023/03/22 03:29:38;;;;;;;5.32;3.05;;;;;;;;;;5284119;28;20021;-69
2023/03/22 03:32:16;;;;;;;6.32;2.90;;;;;;;;;;5284202;28;20024;-69
2023/03/22 03:34:54;;;;;;;5.35;2.13;;;;;;;;;;5283878;28;20019;-69
2023/03/22 03:37:31;;;;;;;5.25;2.13;;;;;;;;;;5283962;28;20025;-69
2023/03/22 03:40:08;;;;;;;2.72;1.42;;;;;;;;;;5283392;28;20046;-69
2023/03/22 03:42:42;;;;;;;4.22;1.88;;;;;;;;;;5283779;28;20030;-69
2023/03/22 03:45:15;;;;;;;5.35;2.00;;;;;;;;;;5283612;28;20378;-69
2023/03/22 03:47:47;;;;;;;4.70;1.80;;;;;;;;;;5283949;28;20395;-69
2023/03/22 03:50:18;;;;;;;5.15;1.73;;;;;;;;;;5284147;28;20491;-69
2023/03/22 03:52:51;;;;;;;6.00;1.52;;;;;;;;;;5282899;28;20056;-69
2023/03/22 03:55:22;;;;;;;5.10;1.20;;;;;;;;;;5283935;28;20532;-69
2023/03/22 03:57:54;;;;;;;3.85;1.40;;;;;;;;;;5283749;28;20028;-69
2023/03/22 04:00:25;;;;;;;3.80;1.67;;;;;;;;;;5282595;28;20024;-70
2023/03/22 04:02:57;;;;;;;5.45;1.50;;;;;;;;;;5283900;28;20021;-69
2023/03/22 04:05:28;;;;;;;3.13;1.60;;;;;;;;;;5283491;28;20031;-69
2023/03/22 04:07:59;;;;;;;5.82;1.40;;;;;;;;;;5283102;28;20031;-69
2023/03/22 04:10:30;;;;;;;6.10;1.40;;;;;;;;;;5283359;28;20013;-69
2023/03/22 04:13:02;;;;;;;4.25;1.63;;;;;;;;;;5283143;28;20035;-70
2023/03/22 04:15:33;;;;;;;3.60;1.40;;;;;;;;;;5283095;28;20025;-69
2023/03/22 04:18:05;;;;;;;5.55;1.48;;;;;;;;;;5283863;28;20025;-69
2023/03/22 04:20:40;;;;;;;4.70;1.20;;;;;;;;;;5282642;28;20037;-70
2023/03/22 04:23:11;;;;;;;4.32;1.42;;;;;;;;;;5283709;28;20451;-69
2023/03/22 04:25:48;;;;;;;4.50;1.20;;;;;;;;;;5283089;28;20276;-70
2023/03/22 04:28:20;;;;;;;3.85;1.63;;;;;;;;;;5282589;28;20375;-70
2023/03/22 04:30:51;;;;;;;5.25;1.40;;;;;;;;;;5283333;28;20024;-70
2023/03/22 04:33:22;;;;;;;4.43;1.55;;;;;;;;;;5283030;28;20104;-69
2023/03/22 04:35:55;;;;;;;6.07;1.25;;;;;;;;;;5282298;28;20025;-69
2023/03/22 04:38:27;;;;;;;3.42;1.10;;;;;;;;;;5282548;28;20387;-69
2023/03/22 04:40:58;;;;;;;4.10;1.08;;;;;;;;;;5283203;28;20032;-70
2023/03/22 04:43:33;;;;;;;4.63;1.20;;;;;;;;;;5281576;28;20013;-69
2023/03/22 04:46:08;;;;;;;5.13;1.00;;;;;;;;;;5283079;28;20036;-69
2023/03/22 04:48:40;;;;;;;3.25;1.02;;;;;;;;;;5281614;28;20035;-69
2023/03/22 04:51:11;;;;;;;5.20;1.48;;;;;;;;;;5282784;28;20044;-69
2023/03/22 04:53:43;;;;;;;3.85;1.38;;;;;;;;;;5282445;28;20816;-69
2023/03/22 04:56:14;;;;;;;4.63;1.30;;;;;;;;;;5282388;28;20025;-69
2023/03/22 04:58:46;;;;;;;3.95;1.30;;;;;;;;;;5282269;28;20138;-69
2023/03/22 05:01:17;;;;;;;5.25;1.13;;;;;;;;;;5282741;28;20074;-69
2023/03/22 05:03:48;;;;;;;3.35;1.00;;;;;;;;;;5281536;28;20103;-70
2023/03/22 05:06:19;;;;;;;5.65;0.93;;;;;;;;;;5282244;28;20031;-70
2023/03/22 05:08:50;;;;;;;6.95;1.40;;;;;;;;;;5282278;28;20016;-70
2023/03/22 05:11:23;;;;;;;4.93;1.40;;;;;;;;;;5281600;28;20353;-70
2023/03/22 05:13:54;;;;;;;3.40;1.00;;;;;;;;;;5282282;28;20024;-70
2023/03/22 05:16:25;;;;;;;6.97;1.42;;;;;;;;;;5281181;28;20035;-70
2023/03/22 05:18:56;;;;;;;4.57;1.33;;;;;;;;;;5282630;28;20490;-70
2023/03/22 05:21:35;;;;;;;4.45;1.20;;;;;;;;;;5281721;28;20115;-70
2023/03/22 05:24:06;;;;;;;5.07;0.90;;;;;;;;;;5281053;28;20020;-70
2023/03/22 05:26:41;;;;;;;6.35;1.30;;;;;;;;;;5281896;28;20055;-70
2023/03/22 05:29:12;;;;;;;3.47;0.80;;;;;;;;;;5282486;28;20367;-70
2023/03/22 05:31:43;;;;;;;5.63;1.30;;;;;;;;;;5280842;28;20397;-69
2023/03/22 05:34:14;;;;;;;4.32;1.00;;;;;;;;;;5282623;28;20131;-69
2023/03/22 05:36:45;;;;;;;3.47;0.70;;;;;;;;;;5281239;28;20033;-69
2023/03/22 05:39:16;;;;;;;6.82;1.50;;;;;;;;;;5281119;28;20044;-69
2023/03/22 05:41:48;;;;;;;6.18;0.98;;;;;;;;;;5281136;28;20451;-69
2023/03/22 05:44:19;;;;;;;3.30;0.88;;;;;;;;;;5281777;28;20025;-69
2023/03/22 05:46:50;;;;;;;4.57;0.90;;;;;;;;;;5280776;28;20104;-69
2023/03/22 05:49:21;;;;;;;4.30;0.70;;;;;;;;;;5281514;28;20012;-69
2023/03/22 05:51:52;;;;;;;4.72;0.82;;;;;;;;;;5280530;28;20063;-69
2023/03/22 05:54:24;;;;;;;5.05;0.80;;;;;;;;;;5281542;28;20021;-69
2023/03/22 05:56:55;;;;;;;3.70;0.70;;;;;;;;;;5281749;28;20021;-70
2023/03/22 05:59:26;;;;;;;2.90;0.70;;;;;;;;;;5280437;28;20021;-69
2023/03/22 06:01:57;;;;;;;7.95;0.90;;;;;;;;;;5281941;28;20371;-70
2023/03/22 06:04:29;;;;;;;5.57;0.90;;;;;;;;;;5281315;28;20017;-70
2023/03/22 06:07:00;;;;;;;5.35;0.90;;;;;;;;;;5281155;28;20016;-70
2023/03/22 06:09:31;;;;;;;5.13;1.02;;;;;;;;;;5281124;28;20024;-70
2023/03/22 06:12:03;;;;;;;3.85;0.80;;;;;;;;;;5281804;28;20047;-70
2023/03/22 06:14:34;;;;;;;5.18;0.98;;;;;;;;;;5280517;28;20033;-70
2023/03/22 06:17:05;;;;;;;5.50;0.85;;;;;;;;;;5281951;28;20027;-69
2023/03/22 06:19:36;;;;;;;5.78;1.67;;;;;;;;;;5280691;28;20023;-69
2023/03/22 06:22:08;;;;;;;8.18;1.52;;;;;;;;;;5281257;28;20032;-70
2023/03/22 06:24:41;;;;;;;7.32;1.52;;;;;;;;;;5280909;28;20025;-69
2023/03/22 06:27:13;;;;;;;6.05;1.27;;;;;;;;;;5280801;28;20107;-69
2023/03/22 06:29:49;;;;;;;6.75;1.13;;;;;;;;;;5281141;28;20514;-69
2023/03/22 06:32:22;;;;;;;4.22;1.10;;;;;;;;;;5281397;28;20013;-70
2023/03/22 06:34:53;;;;;;;7.18;1.10;;;;;;;;;;5280735;28;20023;-69
2023/03/22 06:37:25;;;;;;;4.43;1.10;;;;;;;;;;5285304;28;20016;-69
2023/03/22 06:39:56;;;;;;;4.30;0.88;;;;;;;;;;5285640;28;20040;-70
2023/03/22 06:42:29;;;;;;;7.93;1.20;;;;;;;;;;5284034;28;20040;-70
2023/03/22 06:45:01;;;;;;;6.95;1.25;;;;;;;;;;5285319;28;20024;-70
2023/03/22 06:47:32;;;;;;;4.97;1.15;;;;;;;;;;5284564;28;20017;-70
2023/03/22 06:50:03;;;;;;;5.57;1.17;;;;;;;;;;5284556;28;20416;-71
2023/03/22 06:52:34;;;;;;;4.88;1.35;;;;;;;;;;5284351;28;20052;-70
2023/03/22 06:55:06;;;;;;;5.88;1.00;;;;;;;;;;5284253;28;20094;-70
2023/03/22 06:57:37;;;;;;;5.95;1.52;;;;;;;;;;5284523;28;20032;-70
2023/03/22 07:00:08;;;;;;;9.05;2.28;;;;;;;;;;5284825;28;20126;-70
2023/03/22 07:02:40;;;;;;;5.18;1.25;;;;;;;;;;5283668;28;20027;-70
2023/03/22 07:05:11;;;;;;;7.25;1.23;;;;;;;;;;5284999;28;20013;-69
2023/03/22 07:07:42;;;;;;;5.45;0.90;;;;;;;;;;5284282;28;20263;-69
2023/03/22 07:10:13;;;;;;;4.50;1.40;;;;;;;;;;5283940;28;20021;-69
2023/03/22 07:12:44;;;;;;;5.63;1.05;;;;;;;;;;5284544;28;20463;-70
2023/03/22 07:15:16;;;;;;;5.03;1.20;;;;;;;;;;5284813;28;20028;-70
2023/03/22 07:17:47;;;;;;;6.13;1.30;;;;;;;;;;5283248;28;20024;-71
2023/03/22 07:20:18;;;;;;;5.80;1.17;;;;;;;;;;5284719;28;20037;-71
2023/03/22 07:22:50;;;;;;;5.95;1.15;;;;;;;;;;5283943;28;20017;-70
2023/03/22 07:25:21;;;;;;;6.18;1.15;;;;;;;;;;5283431;28;20097;-70
2023/03/22 07:27:52;;;;;;;7.40;1.38;;;;;;;;;;5284476;28;20069;-69
2023/03/22 07:30:23;;;;;;;5.05;1.08;;;;;;;;;;5283701;28;20058;-71
2023/03/22 07:32:55;;;;;;;6.00;1.42;;;;;;;;;;5284231;28;20263;-70
2023/03/22 07:35:26;;;;;;;5.00;1.73;;;;;;;;;;5283836;28;20020;-70
2023/03/22 07:37:57;;;;;;;4.05;1.10;;;;;;;;;;5283585;28;20017;-70
2023/03/22 07:40:29;;;;;;;5.00;1.33;;;;;;;;;;5283800;28;20055;-70
2023/03/22 07:43:01;;;;;;;4.80;1.45;;;;;;;;;;5284271;28;20024;-69
2023/03/22 07:45:32;;;;;;;6.40;1.45;;;;;;;;;;5282795;28;20047;-70
2023/03/22 07:48:03;;;;;;;8.57;1.63;;;;;;;;;;5283779;28;20025;-69
2023/03/22 07:50:34;;;;;;;6.00;1.25;;;;;;;;;;5283198;28;20046;-71
2023/03/22 07:53:06;;;;;;;7.32;1.10;;;;;;;;;;5283398;28;20469;-71
2023/03/22 07:55:37;;;;;;;4.15;1.00;;;;;;;;;;5283405;28;20028;-69
2023/03/22 07:58:09;;;;;;;5.50;1.00;;;;;;;;;;5283283;28;20027;-70
2023/03/22 08:00:40;;;;;;;6.47;1.10;;;;;;;;;;5283345;28;20056;-70
2023/03/22 08:03:12;;;;;;;4.72;0.70;;;;;;;;;;5284349;28;20023;-70
2023/03/22 08:05:43;;;;;;;8.73;1.23;;;;;;;;;;5282748;28;20095;-70
2023/03/22 08:08:14;;;;;;;6.75;1.02;;;;;;;;;;5283812;28;20017;-69
2023/03/22 08:10:49;;;;;;;4.88;0.55;;;;;;;;;;5283271;28;20016;-69
2023/03/22 08:13:20;;;;;;;5.78;0.70;;;;;;;;;;5282781;28;20012;-70
2023/03/22 08:15:51;;;;;;;5.68;0.80;;;;;;;;;;5276949;28;20025;-69
2023/03/22 08:18:23;;;;;;;4.80;0.85;;;;;;;;;;5281319;28;20021;-70
2023/03/22 08:20:55;;;;;;;4.95;0.70;;;;;;;;;;5280658;28;20497;-68
2023/03/22 08:23:26;;;;;;;3.10;0.60;;;;;;;;;;5280995;28;20017;-69
2023/03/22 08:25:57;;;;;;;4.93;0.98;;;;;;;;;;5283057;28;20111;-70
2023/03/22 08:28:29;;;;;;;4.80;0.75;;;;;;;;;;5280565;28;20021;-70
2023/03/22 08:31:00;;;;;;;4.32;0.50;;;;;;;;;;5283413;28;20012;-70
2023/03/22 08:33:32;;;;;;;3.37;0.60;;;;;;;;;;5282149;28;20034;-70
2023/03/22 08:36:07;;;;;;;4.57;0.60;;;;;;;;;;5282811;28;20788;-71
2023/03/22 08:38:38;;;;;;;5.90;0.57;;;;;;;;;;5282155;28;20503;-70
2023/03/22 08:41:10;;;;;;;4.68;0.68;;;;;;;;;;5282153;28;20032;-70
2023/03/22 08:43:42;;;;;;;5.85;0.60;;;;;;;;;;5282375;28;20096;-71
2023/03/22 08:46:13;;;;;;;6.72;0.80;;;;;;;;;;5282866;28;20111;-71
2023/03/22 08:48:49;;;;;;;5.22;0.90;;;;;;;;;;5281674;28;20502;-71
2023/03/22 08:51:21;;;;;;;6.32;0.60;;;;;;;;;;5282419;28;20417;-71
2023/03/22 08:53:52;;;;;;;5.60;0.80;;;;;;;;;;5282574;28;20103;-70
2023/03/22 08:56:26;;;;;;;4.95;0.60;;;;;;;;;;5282121;28;20099;-70
2023/03/22 08:58:57;;;;;;;3.65;0.50;;;;;;;;;;5281717;28;20024;-71
2023/03/22 09:01:28;;;;;;;7.50;1.03;;;;;;;;;;5281313;28;20051;-70
2023/03/22 09:03:59;;;;;;;7.53;0.70;;;;;;;;;;5282275;28;20270;-69
2023/03/22 09:06:31;;;;;;;6.70;0.93;;;;;;;;;;5282058;28;20048;-69
2023/03/22 09:09:02;;;;;;;6.18;0.50;;;;;;;;;;5281624;28;20008;-69
2023/03/22 09:11:36;;;;;;;6.47;0.98;;;;;;;;;;5281862;28;20103;-68
2023/03/22 09:14:08;;;;;;;4.35;0.50;;;;;;;;;;5279115;28;20095;-67
2023/03/22 09:16:39;;;;;;;5.00;0.40;;;;;;;;;;5280618;28;20554;-68
2023/03/22 09:19:10;;;;;;;3.42;0.52;;;;;;;;;;5282036;28;20066;-67
2023/03/22 09:21:41;;;;;;;6.97;0.63;;;;;;;;;;5281168;28;20793;-67
2023/03/22 09:24:12;;;;;;;4.93;0.50;;;;;;;;;;5281475;28;20031;-67
2023/03/22 09:26:44;;;;;;;4.27;0.57;;;;;;;;;;5281563;28;20028;-68
2023/03/22 09:29:16;;;;;;;4.22;0.57;;;;;;;;;;5281560;28;20334;-67
2023/03/22 09:31:47;;;;;;;6.53;0.75;;;;;;;;;;5280373;28;20104;-68
2023/03/22 09:34:19;;;;;;;5.20;0.70;;;;;;;;;;5281551;28;20020;-67
2023/03/22 09:36:51;;;;;;;6.43;0.50;;;;;;;;;;5280509;28;20016;-68
2023/03/22 09:39:22;;;;;;;5.10;0.50;;;;;;;;;;5281674;28;20414;-67
2023/03/22 09:41:56;;;;;;;5.80;0.60;;;;;;;;;;5281175;28;20032;-68
2023/03/22 09:44:45;;;;;;;6.55;0.82;;;;;;;;;;5280366;28;20104;-69
2023/03/22 09:47:30;;;;;;;5.78;0.80;;;;;;;;;;5282119;28;20021;-69
2023/03/22 09:50:04;;;;;;;5.95;0.50;;;;;;;;;;5281928;28;20037;-69
2023/03/22 09:52:35;;;;;;;4.50;0.50;;;;;;;;;;5280110;28;20385;-70
2023/03/22 09:55:15;;;;;;;6.50;0.70;;;;;;;;;;5280703;28;20082;-69
2023/03/22 09:58:07;;;;;;;4.20;0.40;;;;;;;;;;5280541;28;20031;-69
2023/03/22 10:00:41;;;;;;;6.80;0.60;;;;;;;;;;5280934;28;20124;-70
2023/03/22 10:03:15;;;;;;;4.53;0.60;;;;;;;;;;5281778;28;20103;-70
2023/03/22 10:05:57;;;;;;;4.60;0.60;;;;;;;;;;5280348;28;20075;-69
2023/03/22 10:08:34;;;;;;;4.15;0.50;;;;;;;;;;5281310;28;20463;-70
2023/03/22 10:11:12;;;;;;;6.53;0.73;;;;;;;;;;5286089;28;20024;-70
2023/03/22 10:14:04;;;;;;;3.95;0.40;;;;;;;;;;5284700;28;20538;-70
2023/03/22 10:16:36;;;;;;;5.38;0.45;;;;;;;;;;5285039;28;20058;-70
2023/03/22 10:19:16;;;;;;;3.33;0.40;;;;;;;;;;5285177;28;20460;-70
2023/03/22 10:21:48;;;;;;;4.45;0.60;;;;;;;;;;5285407;28;20063;-71
2023/03/22 10:24:25;;;;;;;5.85;0.68;;;;;;;;;;5285554;28;20471;-71
2023/03/22 10:26:56;;;;;;;5.20;0.60;;;;;;;;;;5284768;28;20422;-70
2023/03/22 10:29:36;;;;;;;6.88;0.57;;;;;;;;;;5284761;28;20017;-70
2023/03/22 10:32:10;;;;;;;8.07;0.60;;;;;;;;;;5285666;28;20008;-70
2023/03/22 10:34:42;;;;;;;6.85;0.47;;;;;;;;;;5284192;28;20032;-70
2023/03/22 10:37:15;;;;;;;4.72;0.55;;;;;;;;;;5285971;28;20040;-70
2023/03/22 10:39:48;;;;;;;6.68;1.02;;;;;;;;;;5284611;28;20016;-70
2023/03/22 10:42:22;;;;;;;6.18;0.47;;;;;;;;;;5284317;28;20025;-69
2023/03/22 10:44:54;;;;;;;6.38;1.15;;;;;;;;;;5285139;28;20099;-70
2023/03/22 10:47:30;;;;;;;4.57;0.60;;;;;;;;;;5284112;28;20463;-69
2023/03/22 10:50:03;;;;;;;5.00;0.63;;;;;;;;;;5285633;28;20471;-70
2023/03/22 10:52:38;;;;;;;5.53;0.63;;;;;;;;;;5284372;28;20055;-70
2023/03/22 10:55:14;;;;;;;4.60;0.57;;;;;;;;;;5284203;28;20020;-69
2023/03/22 10:57:56;;;;;;;5.75;0.50;;;;;;;;;;5284758;28;20104;-70
2023/03/22 11:00:28;;;;;;;4.47;0.50;;;;;;;;;;5284542;28;20064;-69
2023/03/22 11:02:59;;;;;;;5.78;0.50;;;;;;;;;;5284381;28;20040;-69
2023/03/22 11:05:30;;;;;;;7.75;0.70;;;;;;;;;;5284664;28;20463;-70
2023/03/22 11:08:02;;;;;;;4.70;0.52;;;;;;;;;;5284257;28;20471;-69
2023/03/22 11:10:33;;;;;;;4.90;0.80;;;;;;;;;;5284300;28;20059;-70
2023/03/22 11:13:07;;;;;;;6.00;0.70;;;;;;;;;;5284714;28;20112;-69
2023/03/22 11:15:41;;;;;;;5.95;0.70;;;;;;;;;;5283706;28;20585;-70
2023/03/22 11:18:14;;;;;;;3.60;0.47;;;;;;;;;;5284745;28;20065;-69
2023/03/22 11:20:54;;;;;;;5.60;0.60;;;;;;;;;;5283307;28;20029;-70
2023/03/22 11:23:27;;;;;;;3.85;0.65;;;;;;;;;;5283308;28;20471;-70
2023/03/22 11:26:03;;;;;;;4.35;0.63;;;;;;;;;;5284799;28;20024;-70
2023/03/22 11:28:48;;;;;;;5.50;0.80;;;;;;;;;;5284028;28;20392;-70
2023/03/22 11:31:19;;;;;;;8.18;0.98;;;;;;;;;;5283725;28;20103;-70
2023/03/22 11:33:58;;;;;;;2.92;0.60;;;;;;;;;;5284200;28;20104;-70
2023/03/22 11:36:30;;;;;;;4.72;0.60;;;;;;;;;;5283393;28;20086;-70
2023/03/22 11:39:05;;;;;;;2.95;0.60;;;;;;;;;;5284485;28;20013;-69
2023/03/22 11:41:38;;;;;;;4.85;0.70;;;;;;;;;;5283274;28;20036;-70
2023/03/22 11:44:11;;;;;;;2.65;0.57;;;;;;;;;;5283678;28;20017;-69
2023/03/22 11:46:47;;;;;;;5.63;0.80;;;;;;;;;;5283844;28;20104;-70
2023/03/22 11:49:19;;;;;;;4.07;0.50;;;;;;;;;;5284058;28;20462;-70
2023/03/22 11:51:51;;;;;;;4.10;0.50;;;;;;;;;;5283035;28;20143;-69
2023/03/22 11:54:25;;;;;;;4.50;0.50;;;;;;;;;;5284010;28;20028;-70
2023/03/22 11:56:57;;;;;;;4.82;0.60;;;;;;;;;;5284077;28;20024;-70
2023/03/22 11:59:36;;;;;;;3.30;0.40;;;;;;;;;;5282500;28;20016;-70
2023/03/22 12:02:17;;;;;;;2.58;0.40;;;;;;;;;;5284039;28;20032;-69
2023/03/22 12:04:50;;;;;;;2.58;0.40;;;;;;;;;;5282787;28;20012;-70
2023/03/22 12:07:23;;;;;;;3.40;0.40;;;;;;;;;;5283643;28;20433;-69
2023/03/22 12:10:09;;;;;;;5.30;0.80;;;;;;;;;;5283447;28;20054;-69
2023/03/22 12:12:48;;;;;;;3.05;0.50;;;;;;;;;;5282391;28;20096;-70
2023/03/22 12:15:24;;;;;;;6.32;0.68;;;;;;;;;;5283867;28;20420;-70
2023/03/22 12:17:55;;;;;;;3.28;0.45;;;;;;;;;;5283907;28;20490;-70
2023/03/22 12:20:39;;;;;;;3.25;0.40;;;;;;;;;;5281962;28;20103;-70
2023/03/22 12:23:13;;;;;;;4.07;0.40;;;;;;;;;;5283221;28;20020;-71
2023/03/22 12:25:54;;;;;;;2.20;0.30;;;;;;;;;;5282398;28;20112;-70
2023/03/22 12:28:45;;;;;;;5.47;0.50;;;;;;;;;;5283038;28;20019;-70
2023/03/22 12:31:21;;;;;;;4.22;0.40;;;;;;;;;;5282981;28;20052;-71
2023/03/22 12:33:54;;;;;;;3.33;0.65;;;;;;;;;;5281432;28;20425;-70
2023/03/22 12:36:33;;;;;;;4.25;0.30;;;;;;;;;;5282567;28;20024;-70
2023/03/22 12:39:05;;;;;;;3.17;0.50;;;;;;;;;;5283390;28;20020;-70
2023/03/22 12:41:42;;;;;;;3.45;0.60;;;;;;;;;;5281593;28;20123;-70
2023/03/22 12:44:17;;;;;;;2.75;0.50;;;;;;;;;;5283030;28;20017;-70
2023/03/22 12:46:52;;;;;;;2.15;0.50;;;;;;;;;;5281452;28;20556;-70
2023/03/22 12:49:26;;;;;;;3.25;0.47;;;;;;;;;;5279407;28;20476;-70
2023/03/22 12:52:12;;;;;;;2.38;0.45;;;;;;;;;;5282387;28;20123;-70
2023/03/22 12:54:46;;;;;;;6.85;0.50;;;;;;;;;;5281133;28;20498;-70
2023/03/22 12:57:17;;;;;;;2.92;0.40;;;;;;;;;;5282362;28;20013;-71
2023/03/22 12:59:50;;;;;;;4.38;0.68;;;;;;;;;;5282069;28;20077;-72
2023/03/22 13:02:31;;;;;;;3.28;0.45;;;;;;;;;;5281066;28;20043;-71
2023/03/22 13:05:05;;;;;;;2.70;0.45;;;;;;;;;;5282158;28;20099;-71
2023/03/22 13:07:58;;;;;;;3.83;0.40;;;;;;;;;;5281142;28;20017;-72
2023/03/22 13:10:29;;;;;;;3.35;0.40;;;;;;;;;;5282044;28;20008;-72
2023/03/22 13:13:06;;;;;;;3.58;0.45;;;;;;;;;;5281858;28;20035;-72
2023/03/22 13:15:40;;;;;;;5.05;0.60;;;;;;;;;;5280615;28;20374;-71
2023/03/22 13:18:39;;;;;;;3.47;0.45;;;;;;;;;;5279974;28;20028;-72
2023/03/22 13:21:11;;;;;;;2.38;0.40;;;;;;;;;;5281991;28;20024;-72
2023/03/22 13:23:59;;;;;;;4.60;0.40;;;;;;;;;;5280582;28;20020;-72
2023/03/22 13:26:33;;;;;;;3.22;0.43;;;;;;;;;;5281502;28;20021;-71
2023/03/22 13:29:17;;;;;;;3.28;0.40;;;;;;;;;;5281153;28;20031;-72
2023/03/22 13:31:53;;;;;;;3.72;0.52;;;;;;;;;;5281611;28;20021;-72
2023/03/22 13:34:30;;;;;;;4.10;0.65;;;;;;;;;;5281656;28;20032;-71
2023/03/22 13:37:06;;;;;;;3.95;0.50;;;;;;;;;;5281547;28;20107;-71
2023/03/22 13:39:38;;;;;;;3.13;0.40;;;;;;;;;;5281537;28;20462;-72
2023/03/22 13:42:17;;;;;;;3.13;0.40;;;;;;;;;;5281992;28;20043;-74
2023/03/22 13:45:02;;;;;;;3.33;0.28;;;;;;;;;;5280136;28;20062;-72
2023/03/22 13:47:33;;;;;;;2.72;0.30;;;;;;;;;;5281647;28;20027;-72
2023/03/22 13:50:16;;;;;;;4.68;0.50;;;;;;;;;;5281295;28;20020;-73
2023/03/22 13:53:10;;;;;;;2.42;0.60;;;;;;;;;;5281136;28;20059;-71
2023/03/22 13:55:47;;;;;;;3.20;0.80;;;;;;;;;;5281504;28;20363;-72
2023/03/22 13:58:24;;;;;;;4.47;0.55;;;;;;;;;;5281180;28;20475;-72
2023/03/22 14:00:56;;;;;;;2.78;0.45;;;;;;;;;;5281649;28;20399;-71
2023/03/22 14:03:30;;;;;;;2.67;0.50;;;;;;;;;;5281279;28;20066;-72
2023/03/22 14:06:04;;;;;;;3.33;0.47;;;;;;;;;;5281334;28;20023;-71
2023/03/22 14:08:36;;;;;;;3.72;0.40;;;;;;;;;;5281334;28;20035;-72
2023/03/22 14:11:29;;;;;;;5.57;0.50;;;;;;;;;;5280925;28;20083;-71
2023/03/22 14:14:10;;;;;;;2.65;0.70;;;;;;;;;;5281848;28;20013;-73
2023/03/22 14:16:44;;;;;;;4.13;0.43;;;;;;;;;;5281153;28;20040;-72
2023/03/22 14:19:27;;;;;;;4.05;0.85;;;;;;;;;;5280875;28;20551;-72
2023/03/22 14:22:02;;;;;;;4.60;0.93;;;;;;;;;;5281496;28;20059;-71
2023/03/22 14:24:34;;;;;;;2.97;0.60;;;;;;;;;;5280760;28;20471;-71
2023/03/22 14:27:05;;;;;;;6.45;0.70;;;;;;;;;;5280973;28;20074;-71
2023/03/22 14:29:44;;;;;;;4.57;0.90;;;;;;;;;;5281203;28;20013;-72
2023/03/22 14:32:28;;;;;;;2.88;0.50;;;;;;;;;;5280852;28;20021;-72
2023/03/22 14:35:09;;;;;;;4.72;0.85;;;;;;;;;;5281823;28;20360;-72
2023/03/22 14:37:41;;;;;;;2.90;0.80;;;;;;;;;;5280841;28;20023;-72
2023/03/22 14:40:16;;;;;;;3.10;0.60;;;;;;;;;;5280734;28;20017;-72
2023/03/22 14:42:48;;;;;;;2.70;0.60;;;;;;;;;;5280633;28;20032;-71
2023/03/22 14:45:21;;;;;;;3.03;0.50;;;;;;;;;;5281487;28;20016;-72
2023/03/22 14:47:53;;;;;;;3.75;0.63;;;;;;;;;;5280558;28;20262;-71
2023/03/22 14:50:24;;;;;;;2.55;0.40;;;;;;;;;;5280845;28;20016;-73
2023/03/22 14:52:55;;;;;;;3.17;0.80;;;;;;;;;;5281008;28;20048;-71
2023/03/22 14:55:27;;;;;;;3.65;0.70;;;;;;;;;;5279963;28;20021;-72
2023/03/22 14:57:59;;;;;;;3.97;0.60;;;;;;;;;;5284567;28;20352;-71
2023/03/22 15:00:30;;;;;;;3.83;0.60;;;;;;;;;;5283783;28;20103;-71
2023/03/22 15:03:03;;;;;;;2.63;0.60;;;;;;;;;;5284859;28;20024;-71
2023/03/22 15:05:39;;;;;;;3.70;0.60;;;;;;;;;;5284278;28;20021;-72
2023/03/22 15:08:16;;;;;;;2.53;0.50;;;;;;;;;;5284455;28;20016;-71
2023/03/22 15:10:48;;;;;;;3.20;0.90;;;;;;;;;;5284322;28;20024;-71
2023/03/22 15:13:20;;;;;;;2.95;0.88;;;;;;;;;;5284562;28;20187;-72
2023/03/22 15:15:52;;;;;;;2.20;0.55;;;;;;;;;;5283541;28;20507;-71
2023/03/22 15:18:27;;;;;;;3.08;0.60;;;;;;;;;;5284357;28;20013;-72
2023/03/22 15:20:59;;;;;;;4.20;0.52;;;;;;;;;;5284792;28;20028;-72
2023/03/22 15:23:31;;;;;;;4.65;0.80;;;;;;;;;;5283106;28;20413;-71